Terminal Aerodrome Forecast
Issued by NWS Blacksburg, VA

Current Version | Previous Version | Text Only | Print | Product List | Glossary Off
Versions: 1 2 3 4 5 6 7 8 9 10 11 12 13

000
FTUS41 KRNK 192320
TAFBLF
TAF
KBLF 192320Z 2000/2024 27004KT P6SM FEW250
     FM201300 00000KT P6SM FEW250
     FM201600 VRB03KT P6SM FEW045=

USA.gov is the U.S. government's official web portal to all federal, state and local government web resources and services.